createdAt,value
2019-01-11T00:01:06.884Z,12.73
2019-01-11T00:03:36.576Z,14.10
2019-01-11T00:06:06.482Z,14.53
2019-01-11T00:08:35.845Z,8.58
2019-01-11T00:11:05.692Z,9.98
2019-01-11T00:13:35.520Z,10.53
2019-01-11T00:16:05.418Z,9.88
2019-01-11T00:18:35.232Z,10.38
2019-01-11T00:21:04.675Z,13.55
2019-01-11T00:23:34.449Z,17.70
2019-01-11T00:26:04.688Z,20.75
2019-01-11T00:28:34.579Z,8.25
2019-01-11T00:31:04.025Z,11.38
2019-01-11T00:33:33.746Z,10.70
2019-01-11T00:36:03.248Z,9.40
2019-01-11T00:38:32.981Z,9.98
2019-01-11T00:41:02.802Z,11.83
2019-01-11T00:43:32.704Z,14.68
2019-01-11T00:46:02.606Z,23.07
2019-01-11T00:48:31.986Z,11.45
2019-01-11T00:51:01.673Z,14.70
2019-01-11T00:53:31.769Z,13.13
2019-01-11T00:56:01.584Z,10.80
2019-01-11T00:58:31.424Z,20.00
2019-01-11T01:01:01.482Z,12.70
2019-01-11T01:03:31.415Z,10.30
2019-01-11T01:06:00.780Z,9.48
2019-01-11T01:08:30.670Z,14.43
2019-01-11T01:11:00.596Z,11.50
2019-01-11T01:13:30.116Z,10.55
2019-01-11T01:15:59.811Z,9.68
2019-01-11T01:18:29.628Z,10.43
2019-01-11T01:20:59.524Z,17.62
2019-01-11T01:23:29.417Z,13.58
2019-01-11T01:25:59.506Z,8.83
2019-01-11T01:28:29.408Z,7.50
2019-01-11T01:30:59.360Z,13.28
2019-01-11T01:33:29.271Z,10.13
2019-01-11T01:35:59.155Z,12.78
2019-01-11T01:38:29.068Z,16.57
2019-01-11T01:40:59.048Z,19.77
2019-01-11T01:43:28.869Z,10.85
2019-01-11T01:45:58.796Z,17.02
2019-01-11T01:48:28.155Z,12.47
2019-01-11T01:50:57.910Z,9.35
2019-01-11T01:53:28.066Z,14.80
2019-01-11T01:55:57.878Z,16.77
2019-01-11T01:58:27.776Z,16.35
2019-01-11T02:00:57.589Z,13.25
2019-01-11T02:03:27.569Z,10.72
2019-01-11T02:05:57.012Z,14.73
2019-01-11T02:08:27.157Z,23.80
2019-01-11T02:10:57.060Z,13.70
2019-01-11T02:13:26.886Z,11.30
2019-01-11T02:15:56.250Z,9.78
2019-01-11T02:18:26.384Z,18.57
2019-01-11T02:20:56.367Z,11.15
2019-01-11T02:23:26.260Z,11.18
2019-01-11T02:25:56.152Z,15.63
2019-01-11T02:28:25.977Z,17.77
2019-01-11T02:30:55.950Z,12.73
2019-01-11T02:33:25.779Z,21.20
2019-01-11T02:35:55.592Z,13.68
2019-01-11T02:38:25.502Z,13.05
2019-01-11T02:40:54.892Z,14.28
2019-01-11T02:43:24.644Z,9.35
2019-01-11T02:45:54.571Z,18.40
2019-01-11T02:48:23.992Z,11.57
2019-01-11T02:50:53.690Z,12.70
2019-01-11T02:53:23.580Z,11.38
2019-01-11T02:55:52.963Z,13.88
2019-01-11T02:58:22.919Z,13.68
2019-01-11T03:00:52.750Z,11.53
2019-01-11T03:03:22.888Z,8.43
2019-01-11T03:05:52.785Z,12.18
2019-01-11T03:08:22.669Z,8.05
2019-01-11T03:10:52.569Z,15.95
2019-01-11T03:13:21.916Z,13.98
2019-01-11T03:15:51.650Z,12.75
2019-01-11T03:18:21.599Z,13.93
2019-01-11T03:20:51.521Z,12.23
2019-01-11T03:23:20.895Z,15.93
2019-01-11T03:25:50.122Z,20.25
2019-01-11T03:28:19.353Z,12.30
2019-01-11T03:30:49.066Z,12.28
2019-01-11T03:33:18.951Z,8.90
2019-01-11T03:35:48.843Z,10.20
2019-01-11T03:38:18.720Z,8.38
2019-01-11T03:40:48.534Z,19.32
2019-01-11T03:43:17.902Z,16.42
2019-01-11T03:45:47.673Z,7.95
2019-01-11T03:48:17.470Z,8.95
2019-01-11T03:50:47.468Z,9.83
2019-01-11T03:53:16.844Z,17.98
2019-01-11T03:55:46.097Z,8.98
2019-01-11T03:58:15.860Z,8.80
2019-01-11T04:00:45.825Z,8.78
2019-01-11T04:03:15.240Z,8.65
2019-01-11T04:05:45.013Z,8.70
2019-01-11T04:08:14.905Z,10.80
2019-01-11T04:10:45.044Z,7.15
2019-01-11T04:13:15.021Z,8.00
2019-01-11T04:15:44.854Z,7.20
2019-01-11T04:18:39.840Z,8.08
2019-01-11T04:21:09.741Z,7.53
2019-01-11T04:23:39.558Z,7.70
2019-01-11T04:26:09.474Z,8.63
2019-01-11T04:28:39.501Z,19.92
2019-01-11T04:31:09.407Z,9.95
2019-01-11T04:33:39.292Z,7.35
2019-01-11T04:36:09.192Z,14.90
2019-01-11T04:38:39.096Z,16.40
2019-01-11T04:41:08.909Z,7.28
2019-01-11T04:43:38.792Z,9.48
2019-01-11T04:46:08.233Z,10.32
2019-01-11T04:48:37.926Z,13.10
2019-01-11T04:51:07.622Z,9.98
2019-01-11T04:53:37.308Z,11.15
2019-01-11T04:56:06.764Z,11.20
2019-01-11T04:58:36.448Z,8.20
2019-01-11T05:01:05.888Z,8.03
2019-01-11T05:03:35.654Z,5.15
2019-01-11T05:06:05.619Z,10.48
2019-01-11T05:08:35.693Z,8.65
2019-01-11T05:11:06.864Z,9.43
2019-01-11T05:13:38.028Z,8.68
2019-01-11T05:16:07.987Z,11.57
2019-01-11T05:18:37.438Z,7.90
2019-01-11T05:21:07.277Z,11.15
2019-01-11T05:23:37.104Z,11.22
2019-01-11T05:26:07.060Z,9.55
2019-01-11T05:28:36.432Z,9.28
2019-01-11T05:31:06.200Z,9.75
2019-01-11T05:33:36.004Z,11.00
2019-01-11T05:36:05.351Z,8.58
2019-01-11T05:38:35.052Z,15.58
2019-01-11T05:41:04.397Z,17.52
2019-01-11T05:43:33.645Z,18.73
2019-01-11T05:46:03.475Z,9.03
2019-01-11T05:48:33.300Z,13.18
2019-01-11T05:51:03.123Z,11.93
2019-01-11T05:53:33.205Z,11.63
2019-01-11T05:56:08.977Z,8.95
2019-01-11T05:58:50.857Z,9.53
2019-01-11T06:01:20.349Z,11.35
2019-01-11T06:03:50.133Z,9.13
2019-01-11T06:06:19.577Z,14.00
2019-01-11T06:08:49.283Z,9.35
2019-01-11T06:11:19.088Z,15.05
2019-01-11T06:13:48.907Z,10.18
2019-01-11T06:16:18.356Z,17.67
2019-01-11T06:18:47.595Z,18.90
2019-01-11T06:21:16.844Z,26.17
2019-01-11T06:23:46.096Z,17.85
2019-01-11T06:26:15.870Z,15.03
2019-01-11T06:28:45.696Z,10.68
2019-01-11T06:31:15.064Z,11.43
2019-01-11T06:33:47.584Z,11.22
2019-01-11T06:36:18.294Z,18.15
2019-01-11T06:38:48.771Z,8.58
2019-01-11T06:41:18.128Z,12.78
2019-01-11T06:43:49.275Z,14.93
2019-01-11T06:46:20.759Z,7.92
2019-01-11T06:48:50.256Z,15.48
2019-01-11T06:51:20.021Z,8.25
2019-01-11T06:53:49.385Z,9.38
2019-01-11T06:56:18.615Z,8.20
2019-01-11T06:58:48.320Z,12.80
2019-01-11T07:01:18.149Z,14.07
2019-01-11T07:03:48.036Z,10.90
2019-01-11T07:06:17.400Z,11.10
2019-01-11T07:08:47.120Z,9.15
2019-01-11T07:11:16.940Z,11.20
2019-01-11T07:13:46.744Z,12.93
2019-01-11T07:16:16.576Z,12.03
2019-01-11T07:18:45.934Z,11.03
2019-01-11T07:21:15.657Z,11.43
2019-01-11T07:23:45.708Z,13.25
2019-01-11T07:26:15.616Z,12.43
2019-01-11T07:28:45.234Z,11.95
2019-01-11T07:31:17.401Z,15.53
2019-01-11T07:33:46.764Z,14.87
2019-01-11T07:36:29.654Z,9.38
2019-01-11T07:38:59.464Z,8.90
2019-01-11T07:41:29.424Z,8.98
2019-01-11T07:43:59.240Z,13.22
2019-01-11T07:46:29.218Z,13.32
2019-01-11T07:48:59.037Z,6.37
2019-01-11T07:51:28.952Z,13.50
2019-01-11T07:53:58.804Z,10.65
2019-01-11T07:56:28.800Z,16.48
2019-01-11T07:58:58.710Z,10.50
2019-01-11T08:01:32.372Z,14.53
2019-01-11T08:04:02.215Z,13.10
2019-01-11T08:06:31.645Z,9.80
2019-01-11T08:09:01.347Z,12.53
2019-01-11T08:11:31.312Z,20.80
2019-01-11T08:14:01.228Z,6.40
2019-01-11T08:16:30.605Z,18.07
2019-01-11T08:18:59.922Z,19.05
2019-01-11T08:21:29.614Z,10.45
2019-01-11T08:23:59.430Z,16.40
2019-01-11T08:26:29.388Z,13.40
2019-01-11T08:28:59.293Z,10.15
2019-01-11T08:31:34.706Z,12.82
2019-01-11T08:34:00.993Z,14.10
2019-01-11T08:36:30.956Z,22.40
2019-01-11T08:39:00.812Z,28.17
2019-01-11T08:41:30.183Z,14.03
2019-01-11T08:43:59.946Z,12.88
2019-01-11T08:46:30.513Z,15.63
2019-01-11T08:48:59.921Z,18.25
2019-01-11T08:51:29.772Z,11.30
2019-01-11T08:53:59.607Z,21.12
2019-01-11T08:56:29.497Z,17.12
2019-01-11T08:58:58.929Z,11.60
2019-01-11T09:01:30.964Z,12.30
2019-01-11T09:04:00.773Z,17.12
2019-01-11T09:06:30.590Z,11.63
2019-01-11T09:09:00.562Z,14.13
2019-01-11T09:11:29.919Z,18.27
2019-01-11T09:13:59.622Z,9.88
2019-01-11T09:16:29.437Z,13.22
2019-01-11T09:19:01.568Z,17.90
2019-01-11T09:21:31.657Z,12.63
2019-01-11T09:24:01.474Z,17.67
2019-01-11T09:26:31.278Z,16.42
2019-01-11T09:29:02.007Z,14.90
2019-01-11T09:31:31.940Z,11.93
2019-01-11T09:34:01.765Z,12.43
2019-01-11T09:36:31.588Z,19.85
2019-01-11T09:39:01.977Z,19.73
2019-01-11T09:41:32.080Z,16.87
2019-01-11T09:44:01.473Z,13.22
2019-01-11T09:46:30.701Z,19.57
2019-01-11T09:49:00.480Z,15.00
2019-01-11T09:51:30.545Z,21.80
2019-01-11T09:53:59.915Z,25.08
2019-01-11T09:56:29.685Z,17.80
2019-01-11T09:58:59.517Z,19.00
2019-01-11T10:01:29.468Z,16.30
2019-01-11T10:03:59.564Z,12.65
2019-01-11T10:06:30.800Z,28.62
2019-01-11T10:09:00.663Z,20.45
2019-01-11T10:11:30.508Z,15.30
2019-01-11T10:13:59.882Z,17.40
2019-01-11T10:16:29.585Z,18.65
2019-01-11T10:18:59.400Z,20.00
2019-01-11T10:21:29.284Z,17.62
2019-01-11T10:23:59.221Z,17.32
2019-01-11T10:26:29.036Z,13.25
2019-01-11T10:28:58.504Z,27.67
2019-01-11T10:31:28.277Z,19.40
2019-01-11T10:33:58.108Z,17.12
2019-01-11T10:36:27.545Z,16.80
2019-01-11T10:38:56.787Z,12.63
2019-01-11T10:41:26.553Z,13.63
2019-01-11T10:43:55.924Z,16.75
2019-01-11T10:46:34.606Z,18.73
2019-01-11T10:49:03.928Z,19.27
2019-01-11T10:51:33.191Z,16.15
2019-01-11T10:54:02.980Z,18.92
2019-01-11T10:56:33.005Z,16.30
2019-01-11T10:59:02.912Z,19.20
2019-01-11T11:01:32.804Z,20.43
2019-01-11T11:04:02.201Z,20.65
2019-01-11T11:06:31.496Z,16.17
2019-01-11T11:09:01.331Z,14.28
2019-01-11T11:11:31.129Z,16.20
2019-01-11T11:14:01.038Z,17.20
2019-01-11T11:16:32.959Z,16.25
2019-01-11T11:19:02.336Z,14.53
2019-01-11T11:21:34.839Z,17.12
2019-01-11T11:24:03.744Z,16.32
2019-01-11T11:26:33.568Z,14.70
2019-01-11T11:29:03.614Z,15.60
2019-01-11T11:31:33.512Z,17.98
2019-01-11T11:34:03.445Z,18.27
2019-01-11T11:36:33.277Z,22.52
2019-01-11T11:39:04.093Z,17.82
2019-01-11T11:41:33.388Z,15.75
2019-01-11T11:44:03.159Z,17.35
2019-01-11T11:46:33.180Z,15.70
2019-01-11T11:49:03.197Z,15.58
2019-01-11T11:51:33.096Z,21.00
2019-01-11T11:54:03.000Z,18.20
2019-01-11T11:56:33.053Z,24.87
2019-01-11T11:59:02.971Z,14.45
2019-01-11T12:01:32.833Z,15.70
2019-01-11T12:04:02.836Z,19.92
2019-01-11T12:06:32.216Z,17.62
2019-01-11T12:09:01.461Z,16.73
2019-01-11T12:11:30.824Z,19.92
2019-01-11T12:14:00.789Z,13.40
2019-01-11T12:16:30.237Z,20.97
2019-01-11T12:18:59.480Z,19.37
2019-01-11T12:21:29.488Z,20.57
2019-01-11T12:23:59.299Z,18.00
2019-01-11T12:26:28.756Z,15.38
2019-01-11T12:28:58.645Z,16.77
2019-01-11T12:31:28.494Z,16.20
2019-01-11T12:33:58.357Z,15.45
2019-01-11T12:36:27.811Z,16.37
2019-01-11T12:38:57.572Z,16.63
2019-01-11T12:41:27.397Z,16.02
2019-01-11T12:43:56.757Z,25.65
2019-01-11T12:46:26.014Z,16.53
2019-01-11T12:48:55.865Z,21.63
2019-01-11T12:51:25.825Z,16.05
2019-01-11T12:53:55.679Z,17.57
2019-01-11T12:56:25.509Z,20.82
2019-01-11T12:58:55.329Z,26.07
2019-01-11T13:01:25.173Z,22.93
2019-01-11T13:03:55.152Z,17.62
2019-01-11T13:06:25.110Z,21.27
2019-01-11T13:08:55.013Z,18.35
2019-01-11T13:11:24.820Z,22.47
2019-01-11T13:13:54.276Z,22.77
2019-01-11T13:16:23.580Z,30.27
2019-01-11T13:18:53.597Z,20.40
2019-01-11T13:21:23.411Z,26.55
2019-01-11T13:23:53.384Z,35.25
2019-01-11T13:26:23.291Z,26.07
2019-01-11T13:28:52.679Z,28.98
2019-01-11T13:31:22.380Z,22.10
2019-01-11T13:33:52.272Z,25.15
2019-01-11T13:36:24.353Z,20.83
2019-01-11T13:38:53.584Z,20.37
2019-01-11T13:41:23.272Z,23.40
2019-01-11T13:43:53.096Z,25.27
2019-01-11T13:46:22.536Z,33.30
2019-01-11T13:48:52.020Z,26.80
2019-01-11T13:51:21.395Z,20.47
2019-01-11T13:53:51.282Z,21.70
2019-01-11T13:56:21.325Z,18.23
2019-01-11T13:58:51.557Z,23.07
2019-01-11T14:01:21.176Z,24.83
2019-01-11T14:03:51.302Z,28.77
2019-01-11T14:06:20.845Z,28.40
2019-01-11T14:08:50.792Z,25.17
2019-01-11T14:11:20.718Z,27.70
2019-01-11T14:13:50.171Z,21.10
2019-01-11T14:16:19.506Z,18.83
2019-01-11T14:18:49.563Z,35.27
2019-01-11T14:21:19.763Z,27.70
2019-01-11T14:23:49.374Z,24.83
2019-01-11T14:26:19.385Z,25.67
2019-01-11T14:28:49.681Z,29.67
2019-01-11T14:31:19.936Z,23.50
2019-01-11T14:33:50.134Z,29.27
2019-01-11T14:36:19.747Z,29.60
2019-01-11T14:38:49.285Z,22.73
2019-01-11T14:41:19.812Z,24.83
2019-01-11T14:43:49.733Z,24.13
2019-01-11T14:46:19.859Z,23.37
2019-01-11T14:48:50.137Z,28.67
2019-01-11T14:51:21.552Z,23.93
2019-01-11T14:53:51.862Z,24.13
2019-01-11T14:56:21.534Z,31.27
2019-01-11T14:58:51.629Z,19.50
2019-01-11T15:01:21.275Z,24.73
2019-01-11T15:03:51.582Z,24.97
2019-01-11T15:06:21.717Z,15.30
2019-01-11T15:08:51.800Z,18.20
2019-01-11T15:11:22.005Z,18.83
2019-01-11T15:13:51.694Z,19.60
2019-01-11T15:16:21.148Z,20.23
2019-01-11T15:18:51.189Z,23.47
2019-01-11T15:21:20.825Z,23.77
2019-01-11T15:23:50.820Z,31.23
2019-01-11T15:26:20.398Z,24.37
2019-01-11T15:28:50.285Z,26.77
2019-01-11T15:31:20.176Z,22.73
2019-01-11T15:33:49.993Z,27.23
2019-01-11T15:36:19.504Z,21.00
2019-01-11T15:38:48.879Z,16.43
2019-01-11T15:41:18.565Z,18.13
2019-01-11T15:43:47.939Z,26.80
2019-01-11T15:46:17.885Z,22.50
2019-01-11T15:48:49.487Z,28.63
2019-01-11T15:51:20.200Z,29.17
2019-01-11T15:53:50.036Z,25.57
2019-01-11T15:56:24.492Z,28.93
2019-01-11T15:58:54.449Z,26.77
2019-01-11T16:01:23.945Z,27.80
2019-01-11T16:03:53.689Z,23.40
2019-01-11T16:06:34.455Z,28.47
2019-01-11T16:09:55.918Z,30.00
2019-01-11T16:12:26.891Z,21.00
2019-01-11T16:15:18.708Z,32.03
2019-01-11T16:17:48.197Z,27.97
2019-01-11T16:20:17.637Z,27.43
2019-01-11T16:22:47.388Z,32.57
2019-01-11T16:25:16.895Z,36.23
2019-01-11T16:27:47.164Z,24.00
2019-01-11T16:30:17.603Z,33.77
2019-01-11T16:32:47.862Z,24.30
2019-01-11T16:35:17.297Z,24.43
2019-01-11T16:37:47.504Z,27.67
2019-01-11T16:40:17.424Z,27.37
2019-01-11T16:42:47.488Z,33.40
2019-01-11T16:45:17.908Z,32.77
2019-01-11T16:47:50.632Z,25.50
2019-01-11T16:50:20.044Z,33.47
2019-01-11T16:52:49.897Z,26.33
2019-01-11T16:55:20.008Z,26.10
2019-01-11T16:57:52.039Z,28.20
2019-01-11T17:00:21.453Z,25.50
2019-01-11T17:02:50.750Z,24.27
2019-01-11T17:05:20.075Z,24.03
2019-01-11T17:07:50.018Z,25.93
2019-01-11T17:10:19.473Z,25.90
2019-01-11T17:12:49.196Z,26.47
2019-01-11T17:15:18.969Z,33.53
2019-01-11T17:17:48.228Z,18.67
2019-01-11T17:20:17.688Z,26.53
2019-01-11T17:22:52.917Z,19.83
2019-01-11T17:25:19.652Z,34.87
2019-01-11T17:27:49.188Z,22.10
2019-01-11T17:30:19.308Z,19.30
2019-01-11T17:32:48.728Z,37.00
2019-01-11T17:35:17.996Z,21.33
2019-01-11T17:37:47.406Z,28.17
2019-01-11T17:40:17.266Z,34.60
2019-01-11T17:42:47.117Z,27.33
2019-01-11T17:45:16.472Z,19.07
2019-01-11T17:47:45.803Z,31.77
2019-01-11T17:50:16.117Z,34.07
2019-01-11T17:52:46.276Z,22.83
2019-01-11T17:55:16.235Z,24.33
2019-01-11T17:57:46.212Z,24.37
2019-01-11T18:00:18.122Z,34.53
2019-01-11T18:02:47.582Z,27.77
2019-01-11T18:05:16.895Z,31.67
2019-01-11T18:07:46.781Z,23.13
2019-01-11T18:10:16.613Z,31.27
2019-01-11T18:12:47.021Z,25.03
2019-01-11T18:15:19.486Z,29.97
2019-01-11T18:17:49.750Z,33.70
2019-01-11T18:20:21.392Z,26.40
2019-01-11T18:22:51.495Z,27.53
2019-01-11T18:25:21.645Z,20.77
2019-01-11T18:27:51.661Z,28.23
2019-01-11T18:30:21.625Z,20.57
2019-01-11T18:32:51.652Z,28.27
2019-01-11T18:35:21.071Z,19.77
2019-01-11T18:37:50.304Z,19.30
2019-01-11T18:40:20.958Z,16.50
2019-01-11T18:42:50.734Z,15.10
2019-01-11T18:45:20.706Z,20.67
2019-01-11T18:47:50.073Z,17.53
2019-01-11T18:50:20.329Z,17.17
2019-01-11T18:52:49.660Z,14.63
2019-01-11T18:55:19.354Z,23.13
2019-01-11T18:57:49.272Z,19.33
2019-01-11T19:00:21.129Z,22.47
2019-01-11T19:02:51.416Z,17.57
2019-01-11T19:05:21.360Z,24.47
2019-01-11T19:07:50.741Z,30.03
2019-01-11T19:10:20.819Z,22.23
2019-01-11T19:12:50.708Z,17.97
2019-01-11T19:15:23.317Z,25.03
2019-01-11T19:17:53.121Z,30.47
2019-01-11T19:20:23.614Z,24.13
2019-01-11T19:22:53.435Z,24.77
2019-01-11T19:25:23.396Z,27.27
2019-01-11T19:27:53.364Z,22.10
2019-01-11T19:30:23.783Z,23.10
2019-01-11T19:32:53.609Z,23.63
2019-01-11T19:35:23.644Z,20.97
2019-01-11T19:37:53.523Z,26.10
2019-01-11T19:40:23.485Z,27.10
2019-01-11T19:42:53.393Z,22.73
2019-01-11T19:45:23.357Z,20.90
2019-01-11T19:47:53.261Z,17.83
2019-01-11T19:50:24.453Z,29.50
2019-01-11T19:52:53.835Z,18.83
2019-01-11T19:55:23.726Z,21.60
2019-01-11T19:57:53.047Z,24.50
2019-01-11T20:00:25.249Z,20.23
2019-01-11T20:02:54.690Z,33.30
2019-01-11T20:05:24.373Z,27.23
2019-01-11T20:07:53.656Z,20.30
2019-01-11T20:10:27.120Z,18.20
2019-01-11T20:12:56.676Z,23.00
2019-01-11T20:15:26.544Z,24.87
2019-01-11T20:17:56.066Z,30.27
2019-01-11T20:20:25.902Z,32.37
2019-01-11T20:23:02.139Z,28.47
2019-01-11T20:25:27.964Z,28.97
2019-01-11T20:27:57.967Z,25.10
2019-01-11T20:30:28.540Z,21.47
2019-01-11T20:32:58.136Z,25.50
2019-01-11T20:35:27.450Z,21.17
2019-01-11T20:37:56.760Z,30.20
2019-01-11T20:40:26.083Z,24.93
2019-01-11T20:42:55.831Z,21.83
2019-01-11T20:45:25.276Z,29.67
2019-01-11T20:47:55.152Z,23.90
2019-01-11T20:50:26.542Z,28.70
2019-01-11T20:52:56.115Z,22.50
2019-01-11T20:55:26.069Z,26.43
2019-01-11T20:57:56.448Z,26.67
2019-01-11T21:00:30.033Z,24.40
2019-01-11T21:03:00.195Z,26.77
2019-01-11T21:05:29.743Z,22.53
2019-01-11T21:07:59.523Z,23.03
2019-01-11T21:10:29.416Z,17.00
2019-01-11T21:12:58.857Z,19.43
2019-01-11T21:15:28.343Z,19.37
2019-01-11T21:17:57.798Z,25.63
2019-01-11T21:20:27.749Z,20.70
2019-01-11T21:22:57.793Z,22.17
2019-01-11T21:25:27.784Z,24.07
2019-01-11T21:27:57.298Z,18.50
2019-01-11T21:30:28.997Z,22.73
2019-01-11T21:32:58.433Z,24.20
2019-01-11T21:35:28.228Z,27.13
2019-01-11T21:37:57.472Z,24.50
2019-01-11T21:40:27.241Z,23.00
2019-01-11T21:42:57.136Z,19.73
2019-01-11T21:45:26.592Z,26.93
2019-01-11T21:47:55.841Z,27.20
2019-01-11T21:50:28.897Z,20.63
2019-01-11T21:52:58.866Z,23.33
2019-01-11T21:55:28.296Z,21.83
2019-01-11T21:57:59.533Z,21.60
2019-01-11T22:00:35.775Z,25.50
2019-01-11T22:03:07.262Z,20.10
2019-01-11T22:05:36.697Z,30.97
2019-01-11T22:08:05.949Z,29.90
2019-01-11T22:10:35.709Z,27.60
2019-01-11T22:13:05.149Z,20.90
2019-01-11T22:15:34.836Z,25.00
2019-01-11T22:18:05.046Z,28.47
2019-01-11T22:20:34.853Z,31.90
2019-01-11T22:23:05.027Z,21.50
2019-01-11T22:25:34.844Z,23.27
2019-01-11T22:28:04.376Z,27.50
2019-01-11T22:30:34.065Z,26.97
2019-01-11T22:33:03.432Z,33.53
2019-01-11T22:35:33.517Z,23.43
2019-01-11T22:38:03.413Z,24.30
2019-01-11T22:40:33.228Z,27.93
2019-01-11T22:43:03.052Z,20.23
2019-01-11T22:45:32.853Z,26.67
2019-01-11T22:48:02.695Z,27.23
2019-01-11T22:50:32.515Z,28.77
2019-01-11T22:53:02.351Z,28.90
2019-01-11T22:55:32.312Z,23.27
2019-01-11T22:58:02.150Z,29.33
2019-01-11T23:00:41.584Z,33.00
2019-01-11T23:03:15.156Z,23.03
2019-01-11T23:05:45.396Z,26.47
2019-01-11T23:08:18.760Z,26.93
2019-01-11T23:11:26.657Z,30.90
2019-01-11T23:13:56.052Z,35.60
2019-01-11T23:16:37.704Z,32.20
2019-01-11T23:19:07.679Z,28.03
2019-01-11T23:21:37.568Z,25.33
2019-01-11T23:24:07.471Z,20.67
2019-01-11T23:26:37.613Z,21.83
2019-01-11T23:29:07.606Z,25.07
2019-01-11T23:31:37.845Z,19.13
2019-01-11T23:34:07.679Z,19.90
2019-01-11T23:36:37.561Z,18.97
2019-01-11T23:39:08.288Z,21.73
2019-01-11T23:41:37.639Z,16.53
2019-01-11T23:44:06.965Z,19.30
2019-01-11T23:46:36.662Z,20.00
2019-01-11T23:49:06.075Z,24.07
2019-01-11T23:51:35.802Z,19.67
2019-01-11T23:54:05.881Z,19.00
2019-01-11T23:56:35.700Z,20.03
2019-01-11T23:59:05.566Z,20.33
